Latest Weather Observations for Grafton Airport

IDN60801

Issued at 6:35 pm EST Monday 21 April 2014 (issued every 30 minutes, with the page automatically refreshed every 10 minutes)

About weather observations | Map of weather stations | Latest weather observations for NSW | Other Formats
Station Details ID: 058161 Name: GRAFTON AIRPORT AWS Lat: -29.76 Lon: 153.03 Height: 25.09 m
Data from the previous 72 hours. | See also: Recent months for locations in New South Wales
Date/Time
EST
Temp
°C
App
Temp
°C
Dew
Point
Rel
Hum
%
Delta-T
°C
Wind Press
QNH
hPa
Press
MSL
hPa
Rain
since 9 am
mm
Dir
 
Spd
km/h
Gust
km/h
Spd
kts
Gust
kts
21/06:30pm 20.9 21.2 17.1 79 2.3 S 11 15 6 8 1018.3 - 0.0
21/06:00pm 22.2 23.4 16.9 72 3.2 SSE 6 7 3 4 1018.0 1017.9 0.0
21/05:30pm 23.2 23.8 16.7 67 4.0 ESE 9 13 5 7 1017.6 - 0.0
21/05:00pm 25.0 24.4 14.5 52 6.3 ENE 11 19 6 10 1017.2 - 0.0
21/04:30pm 27.1 25.5 12.7 41 8.4 NE 13 20 7 11 1016.8 - 0.0
21/04:00pm 28.0 26.0 11.5 35 9.5 NNE 13 19 7 10 1016.6 - 0.0
21/03:30pm 28.1 25.5 10.8 34 9.8 NNE 15 20 8 11 1016.5 - 0.0
21/03:00pm 28.4 26.6 11.0 34 9.9 NNE 11 17 6 9 1016.5 1016.4 0.0
21/02:30pm 28.2 26.1 11.3 35 9.7 N 13 19 7 10 1016.7 - 0.0
21/02:00pm 27.7 26.8 12.5 39 8.9 N 9 17 5 9 1017.0 - 0.0
21/01:30pm 27.8 26.1 12.6 39 8.9 N 13 17 7 9 1017.4 - 0.0
21/01:00pm 27.4 26.3 10.6 35 9.5 N 7 15 4 8 1017.9 - 0.0
21/12:30pm 26.6 25.1 10.7 37 9.0 N 9 13 5 7 1018.3 - 0.0
21/12:00pm 26.3 25.8 12.7 43 7.9 W 7 11 4 6 1018.9 1018.8 0.0
21/11:30am 25.5 24.7 11.7 42 7.9 NW 7 11 4 6 1019.4 - 0.0
21/11:00am 24.6 23.6 12.2 46 7.1 NNW 9 15 5 8 1019.8 - 0.0
21/10:30am 23.1 22.9 13.6 55 5.5 NNE 7 11 4 6 1020.2 - 0.0
21/10:00am 22.1 22.2 14.0 60 4.7 N 6 11 3 6 1020.6 - 0.0
21/09:30am 20.7 20.9 14.1 66 3.8 NNE 6 7 3 4 1020.7 - 0.0
21/09:00am 19.4 20.6 14.9 75 2.6 NNE 2 7 1 4 1020.7 1020.7 0.0
21/08:30am 17.0 18.6 14.8 87 1.3 CALM 0 0 0 0 1020.7 - 0.0
21/08:00am 15.5 16.9 14.5 94 0.6 CALM 0 0 0 0 1020.5 - 0.0
21/07:30am 13.9 15.1 13.7 99 0.1 CALM 0 0 0 0 1020.3 - 0.0
21/07:17am 12.7 13.5 12.5 99 0.1 CALM 0 0 0 0 1020.2 - 0.0
21/07:14am 12.6 13.4 12.4 99 0.1 CALM 0 0 0 0 1020.1 - 0.0
21/07:00am 11.4 11.8 11.2 99 0.1 CALM 0 0 0 0 1020.0 - 0.0
21/06:30am 10.5 10.6 10.2 98 0.2 CALM 0 0 0 0 1019.6 - 0.0
21/06:00am 11.0 9.9 10.7 98 0.2 S 7 9 4 5 1019.1 1019.0 0.0
21/05:30am 11.0 11.2 10.5 97 0.3 CALM 0 0 0 0 1018.9 - 0.0
21/05:00am 12.0 12.6 11.8 99 0.1 CALM 0 0 0 0 1018.6 - 0.0
21/04:30am 11.6 12.0 11.1 97 0.3 CALM 0 0 0 0 1018.2 - 0.0
21/04:02am 11.5 11.4 10.9 96 0.3 N 2 7 1 4 1018.0 - 0.0
21/04:00am 11.5 11.5 11.0 97 0.3 WNW 2 7 1 4 1018.0 - 0.0
21/03:30am 12.4 13.0 11.9 97 0.3 CALM 0 0 0 0 1017.9 - 0.0
21/03:22am 12.6 13.3 12.3 98 0.2 CALM 0 0 0 0 1017.9 - 0.0
21/03:20am 12.6 13.3 12.3 98 0.2 CALM 0 0 0 0 1017.9 - 0.0
21/03:00am 12.2 12.3 11.6 96 0.3 W 2 7 1 4 1017.9 1017.8 0.0
21/02:30am 13.3 13.1 13.0 98 0.2 S 6 7 3 4 1017.8 - 0.0
21/02:09am 13.3 14.2 12.8 97 0.3 CALM 0 6 0 3 1018.0 - 0.0
21/02:00am 13.8 13.8 13.5 98 0.2 S 6 7 3 4 1018.1 - 0.0
21/01:50am 13.7 14.0 13.4 98 0.2 SW 4 7 2 4 1018.1 - 0.0
21/01:30am 13.8 13.8 13.5 98 0.2 SSW 6 7 3 4 1018.0 - 0.0
21/01:28am 13.8 13.7 13.3 97 0.3 SSW 6 7 3 4 1018.0 - 0.0
21/01:00am 14.1 14.1 13.6 97 0.3 SSW 6 9 3 5 1017.9 - 0.0
21/12:30am 13.8 14.0 13.2 96 0.3 SW 4 7 2 4 1017.8 - 0.0
21/12:00am 14.3 15.0 13.5 95 0.4 SSW 2 7 1 4 1017.8 1017.7 0.0
 
Date/Time
EST
Temp
°C
App
Temp
°C
Dew
Point
Rel
Hum
%
Delta-T
°C
Wind Press
QNH
hPa
Press
MSL
hPa
Rain
since 9 am
mm
Dir
 
Spd
km/h
Gust
km/h
Spd
kts
Gust
kts
20/11:30pm 14.7 15.9 13.9 95 0.4 CALM 0 0 0 0 1017.8 - 0.0
20/11:00pm 15.0 15.2 14.2 95 0.5 SSW 6 9 3 5 1017.9 - 0.0
20/10:30pm 15.1 16.4 14.1 94 0.6 CALM 0 6 0 3 1018.1 - 0.0
20/10:00pm 15.5 16.8 14.2 92 0.7 CALM 0 0 0 0 1018.0 - 0.0
20/09:30pm 16.2 16.4 14.7 91 0.9 SSW 7 11 4 6 1018.1 - 0.0
20/09:00pm 16.4 18.0 14.9 91 0.9 CALM 0 0 0 0 1017.9 1017.8 0.0
20/08:30pm 17.7 19.4 15.3 86 1.4 CALM 0 0 0 0 1017.8 - 0.0
20/08:00pm 17.9 19.5 14.8 82 1.8 CALM 0 0 0 0 1017.6 - 0.0
20/07:30pm 18.4 19.9 14.7 79 2.1 CALM 0 0 0 0 1017.3 - 0.0
20/07:00pm 19.9 20.4 15.1 74 2.8 ENE 6 7 3 4 1017.0 - 0.0
20/06:30pm 20.4 20.8 15.2 72 3.1 ENE 7 13 4 7 1016.7 - 0.0
20/06:00pm 20.9 20.4 15.0 69 3.5 NE 11 15 6 8 1016.3 1016.2 0.0
20/05:30pm 21.8 21.1 14.2 62 4.4 NE 11 13 6 7 1015.8 - 0.0
20/05:00pm 23.4 21.7 13.6 54 5.7 NE 15 20 8 11 1015.4 - 0.0
20/04:30pm 25.3 22.7 10.7 40 8.2 NNE 15 20 8 11 1015.0 - 0.0
20/04:00pm 26.3 24.0 10.5 37 8.9 NNE 13 19 7 10 1015.0 - 0.0
20/03:30pm 26.6 24.3 10.3 36 9.1 N 13 19 7 10 1015.0 - 0.0
20/03:00pm 27.1 24.9 9.5 33 9.7 N 11 15 6 8 1015.0 1014.9 0.0
20/02:30pm 27.1 24.5 9.5 33 9.7 NNE 13 20 7 11 1015.0 - 0.0
20/02:00pm 26.8 24.8 10.1 35 9.3 N 11 22 6 12 1015.2 - 0.0
20/01:30pm 26.7 25.5 10.4 36 9.1 E 7 15 4 8 1015.3 - 0.0
20/01:00pm 26.2 24.9 10.0 36 9.0 NNE 7 17 4 9 1015.8 - 0.0
20/12:30pm 25.7 25.2 12.5 44 7.6 NNW 7 15 4 8 1016.2 - 0.0
20/12:00pm 25.2 23.8 12.1 44 7.5 N 11 20 6 11 1016.7 1016.6 0.0
20/11:30am 24.9 23.8 11.8 44 7.5 NW 9 15 5 8 1017.2 - 0.0
20/11:00am 24.7 24.8 14.5 53 6.1 N 7 13 4 7 1017.8 - 0.0
20/10:30am 23.6 23.8 14.3 56 5.5 E 6 9 3 5 1018.3 - 0.0
20/10:00am 21.8 22.1 13.4 59 4.8 SW 4 9 2 5 1018.6 - 0.0
20/09:30am 20.7 21.4 14.4 67 3.7 W 4 7 2 4 1018.8 - 0.0
20/09:00am 19.4 19.6 13.1 67 3.6 WNW 4 9 2 5 1018.9 1018.8 0.0
20/08:30am 17.7 18.1 12.6 72 2.8 SSW 2 7 1 4 1018.8 - 0.0
20/08:00am 15.6 16.4 12.4 81 1.8 CALM 0 0 0 0 1018.5 - 0.0
20/07:30am 13.6 14.2 11.8 89 1.0 CALM 0 0 0 0 1018.2 - 0.0
20/07:00am 12.5 13.1 12.0 97 0.3 CALM 0 0 0 0 1018.1 - 0.0
20/06:30am 11.4 11.7 10.9 97 0.3 CALM 0 0 0 0 1017.8 - 0.0
20/06:00am 11.4 11.7 10.8 96 0.3 CALM 0 0 0 0 1017.7 1017.6 0.0
20/05:30am 11.7 12.0 10.8 94 0.5 CALM 0 0 0 0 1017.2 - 0.0
20/05:00am 11.9 12.3 11.1 95 0.4 CALM 0 0 0 0 1016.9 - 0.0
20/04:30am 11.9 12.2 10.8 93 0.6 CALM 0 0 0 0 1016.7 - 0.0
20/04:00am 12.4 12.7 10.8 90 0.8 CALM 0 0 0 0 1016.5 - 0.0
20/03:30am 13.3 13.9 12.0 92 0.7 CALM 0 0 0 0 1016.4 - 0.0
20/03:00am 12.9 13.4 11.6 92 0.7 CALM 0 0 0 0 1016.6 1016.5 0.0
20/02:30am 13.0 13.5 11.6 91 0.7 CALM 0 0 0 0 1016.7 - 0.0
20/02:00am 12.9 13.3 11.1 89 0.9 CALM 0 0 0 0 1016.7 - 0.0
20/01:30am 13.7 14.2 11.6 87 1.1 CALM 0 6 0 3 1016.7 - 0.0
20/01:00am 13.4 12.5 11.5 88 1.0 SSW 7 9 4 5 1016.8 - 0.0
20/12:30am 13.3 13.5 10.7 84 1.4 CALM 0 6 0 3 1016.9 - 0.0
20/12:00am 13.9 14.3 11.4 85 1.3 CALM 0 0 0 0 1016.8 1016.7 0.0
 
Date/Time
EST
Temp
°C
App
Temp
°C
Dew
Point
Rel
Hum
%
Delta-T
°C
Wind Press
QNH
hPa
Press
MSL
hPa
Rain
since 9 am
mm
Dir
 
Spd
km/h
Gust
km/h
Spd
kts
Gust
kts
19/11:30pm 14.2 13.3 11.5 84 1.4 SSW 7 9 4 5 1016.8 - 0.0
19/11:00pm 14.4 13.6 11.6 83 1.5 SW 7 9 4 5 1017.0 - 0.0
19/10:30pm 14.2 13.3 11.5 84 1.4 SW 7 9 4 5 1017.0 - 0.0
19/10:00pm 14.8 14.0 11.6 81 1.7 SSW 7 11 4 6 1017.1 - 0.0
19/09:30pm 15.1 14.3 11.7 80 1.8 SSW 7 11 4 6 1017.0 - 0.0
19/09:00pm 15.2 14.1 12.0 81 1.7 S 9 11 5 6 1016.9 1016.8 0.0
19/08:30pm 15.6 15.7 11.6 77 2.2 SSW 2 6 1 3 1016.7 - 0.0
19/08:00pm 16.1 16.6 11.7 75 2.4 CALM 0 7 0 4 1016.4 - 0.0
19/07:30pm 16.8 17.3 11.7 72 2.8 CALM 0 4 0 2 1016.0 - 0.0
19/07:00pm 17.5 16.4 12.0 70 3.0 SSW 9 11 5 6 1015.6 - 0.0
19/06:30pm 17.6 16.8 10.9 65 3.6 SSW 6 9 3 5 1015.1 - 0.0
19/06:00pm 19.5 19.2 10.2 55 5.0 SE 2 7 1 4 1014.8 1014.7 0.0
19/05:30pm 21.0 19.8 10.2 50 5.9 SE 7 9 4 5 1014.4 - 0.0
19/05:00pm 22.1 20.7 9.6 45 6.7 ESE 7 15 4 8 1014.0 - 0.0
19/04:30pm 22.7 20.0 9.1 42 7.3 ESE 13 19 7 10 1013.5 - 0.0
19/04:00pm 24.0 21.0 9.2 39 8.0 E 15 22 8 12 1013.2 - 0.0
19/03:30pm 24.7 20.7 8.2 35 8.8 E 19 28 10 15 1013.1 - 0.0
19/03:00pm 25.8 22.1 7.9 32 9.6 E 17 24 9 13 1013.1 1013.0 0.0
19/02:30pm 26.6 23.8 7.1 29 10.3 NNE 11 17 6 9 1013.0 - 0.0
19/02:00pm 26.4 24.6 7.9 31 9.9 N 7 13 4 7 1013.2 - 0.0
19/01:30pm 26.5 23.5 7.5 30 10.1 W 13 19 7 10 1013.4 - 0.0
19/01:00pm 26.7 24.5 7.7 30 10.2 W 9 17 5 9 1013.7 - 0.0
19/12:30pm 26.3 23.7 7.8 31 9.9 SW 11 19 6 10 1014.2 - 0.0
19/12:00pm 26.1 23.8 9.0 34 9.3 W 11 33 6 18 1014.6 1014.5 0.0
19/11:30am 25.1 21.6 7.3 32 9.4 SW 15 24 8 13 1015.2 - 0.0
19/11:00am 24.9 23.8 10.0 39 8.2 SSW 6 13 3 7 1015.7 - 0.0
19/10:30am 23.9 22.7 10.2 42 7.5 W 7 13 4 7 1016.2 - 0.0
19/10:00am 22.7 22.1 12.3 52 5.9 W 7 9 4 5 1016.5 - 0.0
19/09:30am 20.7 20.5 11.9 57 4.9 NW 4 9 2 5 1016.7 - 0.0
19/09:00am 18.5 18.5 12.3 67 3.4 SW 4 9 2 5 1017.1 1017.0 0.0
19/08:30am 16.3 16.8 11.7 74 2.5 CALM 0 6 0 3 1017.2 - 0.0
19/08:00am 14.2 14.3 11.4 83 1.5 S 2 6 1 3 1017.2 - 0.0
19/07:30am 12.1 12.6 11.6 97 0.3 CALM 0 0 0 0 1017.0 - 0.0
19/07:00am 10.8 11.0 10.6 99 0.1 CALM 0 0 0 0 1016.8 - 0.0
19/06:30am 8.9 8.6 8.5 97 0.2 CALM 0 0 0 0 1016.6 - 0.0
19/06:14am 9.0 7.5 8.5 97 0.2 S 6 7 3 4 1016.5 - 0.0
19/06:00am 9.1 8.8 8.5 96 0.3 CALM 0 0 0 0 1016.3 1016.2 0.0
19/05:54am 9.2 8.9 8.6 96 0.3 CALM 0 0 0 0 1016.2 - 0.0
19/05:30am 9.6 7.7 9.1 97 0.2 S 9 17 5 9 1016.0 - 0.0
19/05:00am 9.9 9.8 9.3 96 0.3 CALM 0 0 0 0 1015.9 - 0.0
19/04:30am 10.3 8.9 9.7 96 0.3 ESE 7 7 4 4 1015.8 - 0.0
19/04:00am 9.9 9.6 8.8 93 0.5 CALM 0 0 0 0 1015.6 - 0.0
19/03:30am 11.7 11.3 11.1 96 0.3 S 4 7 2 4 1015.5 - 0.0
19/03:00am 11.3 11.5 10.7 96 0.3 CALM 0 0 0 0 1015.5 1015.4 0.0
19/02:30am 10.8 9.7 10.0 95 0.4 SSW 6 9 3 5 1015.5 - 0.0
19/02:00am 11.2 10.6 10.4 95 0.4 SSW 4 6 2 3 1015.6 - 0.0
19/01:30am 11.2 10.2 10.4 95 0.4 S 6 7 3 4 1015.7 - 0.0
19/01:00am 11.5 11.7 10.6 94 0.5 CALM 0 0 0 0 1015.9 - 0.0
19/12:39am 11.5 11.6 10.1 91 0.7 CALM 0 0 0 0 1016.0 - 0.0
19/12:30am 11.9 12.1 10.6 92 0.7 CALM 0 0 0 0 1016.0 - 0.0
19/12:16am 12.1 11.2 10.8 92 0.7 S 6 9 3 5 1016.2 - 0.0
19/12:02am 12.3 11.4 11.2 93 0.6 S 7 9 4 5 1016.2 - 0.0
19/12:00am 12.4 11.4 11.1 92 0.7 S 7 9 4 5 1016.2 1016.1 0.0
 
Date/Time
EST
Temp
°C
App
Temp
°C
Dew
Point
Rel
Hum
%
Delta-T
°C
Wind Press
QNH
hPa
Press
MSL
hPa
Rain
since 9 am
mm
Dir
 
Spd
km/h
Gust
km/h
Spd
kts
Gust
kts
18/11:39pm 12.8 13.1 11.0 89 0.9 CALM 0 0 0 0 1016.1 - 0.0
18/11:30pm 13.0 13.4 11.4 90 0.8 CALM 0 0 0 0 1016.2 - 0.0
18/11:00pm 13.4 13.4 11.3 87 1.1 SSW 2 6 1 3 1016.3 - 0.0
18/10:30pm 13.8 13.2 11.7 87 1.1 SSW 6 9 3 5 1016.4 - 0.0
18/10:00pm 13.6 12.8 11.7 88 1.0 SSW 7 9 4 5 1016.3 - 0.0
18/09:30pm 13.9 13.1 11.8 87 1.1 S 7 9 4 5 1016.2 - 0.0
18/09:00pm 14.6 15.3 12.1 85 1.4 CALM 0 7 0 4 1016.0 1015.9 0.0
18/08:30pm 15.1 15.7 11.9 81 1.7 CALM 0 0 0 0 1015.9 - 0.0
18/08:00pm 15.3 14.6 12.1 81 1.7 SSW 7 9 4 5 1015.7 - 0.0
18/07:30pm 15.7 15.2 11.9 78 2.1 SSW 6 7 3 4 1015.3 - 0.0
18/07:00pm 17.1 17.7 12.0 72 2.8 CALM 0 0 0 0 1014.8 - 0.0

Other Formats:

Comma delimited format used in spreadsheet applications
http://www.bom.gov.au/fwo/IDN60801/IDN60801.95570.axf

JavaScript Object Notation format (JSON) in row-major order
http://www.bom.gov.au/fwo/IDN60801/IDN60801.95570.json